createdAt,value
2019-05-06T00:01:45.978Z,4.35
2019-05-06T00:04:16.138Z,11.93
2019-05-06T00:06:46.337Z,6.60
2019-05-06T00:09:16.991Z,5.00
2019-05-06T00:11:47.007Z,5.12
2019-05-06T00:14:17.107Z,4.97
2019-05-06T00:16:47.258Z,4.55
2019-05-06T00:19:17.194Z,5.67
2019-05-06T00:21:47.239Z,4.45
2019-05-06T00:24:17.328Z,5.85
2019-05-06T00:27:00.570Z,7.12
2019-05-06T00:29:32.224Z,4.50
2019-05-06T00:32:04.434Z,5.00
2019-05-06T00:34:34.724Z,5.63
2019-05-06T00:37:04.916Z,4.60
2019-05-06T00:39:47.414Z,8.00
2019-05-06T00:42:45.430Z,5.90
2019-05-06T00:45:16.537Z,4.70
2019-05-06T00:47:46.591Z,5.00
2019-05-06T00:50:17.648Z,3.83
2019-05-06T00:52:48.622Z,4.37
2019-05-06T00:55:18.840Z,4.43
2019-05-06T00:57:49.035Z,5.65
2019-05-06T01:00:27.995Z,4.30
2019-05-06T01:02:58.023Z,4.80
2019-05-06T01:05:28.273Z,4.67
2019-05-06T01:07:58.836Z,4.37
2019-05-06T01:10:29.010Z,5.30
2019-05-06T01:13:21.188Z,5.37
2019-05-06T01:15:51.820Z,6.50
2019-05-06T01:18:22.034Z,5.00
2019-05-06T01:20:54.569Z,10.03
2019-05-06T01:23:24.673Z,7.60
2019-05-06T01:25:54.760Z,5.30
2019-05-06T01:28:24.871Z,4.40
2019-05-06T01:30:54.901Z,5.43
2019-05-06T01:33:25.017Z,4.40
2019-05-06T01:35:55.125Z,7.90
2019-05-06T01:38:33.996Z,6.57
2019-05-06T01:41:13.741Z,5.17
2019-05-06T01:43:43.986Z,4.30
2019-05-06T01:46:14.100Z,4.93
2019-05-06T01:48:50.013Z,4.87
2019-05-06T01:51:23.903Z,6.90
2019-05-06T01:53:54.498Z,6.57
2019-05-06T01:56:24.846Z,5.87
2019-05-06T01:58:54.912Z,5.60
2019-05-06T02:01:25.265Z,5.00
2019-05-06T02:03:55.214Z,10.90
2019-05-06T02:06:25.373Z,6.80
2019-05-06T02:08:55.755Z,6.03
2019-05-06T02:11:26.203Z,7.13
2019-05-06T02:13:56.343Z,5.40
2019-05-06T02:16:26.500Z,11.70
2019-05-06T02:18:56.572Z,7.70
2019-05-06T02:21:44.221Z,4.50
2019-05-06T02:24:20.177Z,10.07
2019-05-06T02:26:50.205Z,4.50
2019-05-06T02:29:24.466Z,6.70
2019-05-06T02:32:26.069Z,4.23
2019-05-06T02:35:15.547Z,6.30
2019-05-06T02:37:46.597Z,5.50
2019-05-06T02:40:25.291Z,6.57
2019-05-06T02:42:56.110Z,13.32
2019-05-06T02:45:26.370Z,7.77
2019-05-06T02:48:17.337Z,7.33
2019-05-06T02:51:08.994Z,7.13
2019-05-06T02:53:38.937Z,5.00
2019-05-06T02:56:09.008Z,6.63
2019-05-06T02:58:39.233Z,6.97
2019-05-06T03:01:09.372Z,4.40
2019-05-06T03:03:39.471Z,5.20
2019-05-06T03:06:09.556Z,5.07
2019-05-06T03:08:39.569Z,6.40
2019-05-06T03:11:09.714Z,6.53
2019-05-06T03:13:39.756Z,5.23
2019-05-06T03:16:09.860Z,7.00
2019-05-06T03:18:39.893Z,4.93
2019-05-06T03:21:44.863Z,6.10
2019-05-06T03:24:37.249Z,7.57
2019-05-06T03:27:07.361Z,6.67
2019-05-06T03:29:37.511Z,6.87
2019-05-06T03:32:08.021Z,8.63
2019-05-06T03:34:57.734Z,5.63
2019-05-06T03:37:10.085Z,3.83
2019-05-06T03:39:43.146Z,10.23
2019-05-06T03:42:16.004Z,5.43
2019-05-06T03:44:46.299Z,6.00
2019-05-06T03:47:44.443Z,6.03
2019-05-06T03:50:15.319Z,5.73
2019-05-06T03:52:45.606Z,6.70
2019-05-06T03:55:15.677Z,5.40
2019-05-06T03:57:47.266Z,6.53
2019-05-06T04:00:18.280Z,5.50
2019-05-06T04:02:48.363Z,5.97
2019-05-06T04:05:18.538Z,7.70
2019-05-06T04:07:49.410Z,5.87
2019-05-06T04:10:22.669Z,6.03
2019-05-06T04:12:53.637Z,6.20
2019-05-06T04:15:26.778Z,7.53
2019-05-06T04:18:03.915Z,7.55
2019-05-06T04:20:53.135Z,7.20
2019-05-06T04:23:48.638Z,5.60
2019-05-06T04:26:32.782Z,5.40
2019-05-06T04:29:03.996Z,5.60
2019-05-06T04:31:34.138Z,5.50
2019-05-06T04:34:12.851Z,7.63
2019-05-06T04:36:37.483Z,8.10
2019-05-06T04:39:08.019Z,9.60
2019-05-06T04:41:38.289Z,6.60
2019-05-06T04:44:08.405Z,5.13
2019-05-06T04:46:39.285Z,6.83
2019-05-06T04:49:13.325Z,8.77
2019-05-06T04:51:43.081Z,9.97
2019-05-06T04:54:13.760Z,8.73
2019-05-06T04:56:44.207Z,6.70
2019-05-06T04:59:14.400Z,6.90
2019-05-06T05:01:45.525Z,6.60
2019-05-06T05:04:28.424Z,6.83
2019-05-06T05:06:48.603Z,6.90
2019-05-06T05:09:19.227Z,8.37
2019-05-06T05:11:57.016Z,8.50
2019-05-06T05:14:45.859Z,9.00
2019-05-06T05:17:25.398Z,6.95
2019-05-06T05:19:55.690Z,12.67
2019-05-06T05:22:27.173Z,6.03
2019-05-06T05:24:58.847Z,8.03
2019-05-06T05:27:29.188Z,11.37
2019-05-06T05:29:59.364Z,7.30
2019-05-06T05:32:29.510Z,11.10
2019-05-06T05:35:01.903Z,9.20
2019-05-06T05:37:32.855Z,10.60
2019-05-06T05:40:03.267Z,8.20
2019-05-06T05:42:42.389Z,9.20
2019-05-06T05:45:13.003Z,6.40
2019-05-06T05:47:43.360Z,9.23
2019-05-06T05:50:24.540Z,11.33
2019-05-06T05:52:55.219Z,8.85
2019-05-06T05:55:25.581Z,7.00
2019-05-06T05:57:55.781Z,13.73
2019-05-06T06:00:27.560Z,7.27
2019-05-06T06:02:57.744Z,6.83
2019-05-06T06:05:28.142Z,7.53
2019-05-06T06:07:58.387Z,10.50
2019-05-06T06:10:46.294Z,8.00
2019-05-06T06:13:16.548Z,10.00
2019-05-06T06:16:04.125Z,14.90
2019-05-06T06:18:43.571Z,8.40
2019-05-06T06:21:32.723Z,10.53
2019-05-06T06:24:22.532Z,12.53
2019-05-06T06:26:52.784Z,7.03
2019-05-06T06:29:23.024Z,9.67
2019-05-06T06:32:27.108Z,10.63
2019-05-06T06:35:12.080Z,9.00
2019-05-06T06:37:49.388Z,9.90
2019-05-06T06:40:22.420Z,8.63
2019-05-06T06:42:56.975Z,7.77
2019-05-06T06:45:27.079Z,8.63
2019-05-06T06:47:57.759Z,6.77
2019-05-06T06:50:27.917Z,8.03
2019-05-06T06:52:58.013Z,5.75
2019-05-06T06:55:28.118Z,7.15
2019-05-06T06:58:19.559Z,7.77
2019-05-06T07:01:09.184Z,7.20
2019-05-06T07:03:48.077Z,5.70
2019-05-06T07:06:35.620Z,5.47
2019-05-06T07:09:07.749Z,6.70
2019-05-06T07:11:37.875Z,5.70
2019-05-06T07:14:08.037Z,5.40
2019-05-06T07:16:38.427Z,5.30
2019-05-06T07:19:08.519Z,6.65
2019-05-06T07:21:57.966Z,4.97
2019-05-06T07:24:28.133Z,4.30
2019-05-06T07:27:22.679Z,5.37
2019-05-06T07:29:52.512Z,5.33
2019-05-06T07:32:23.177Z,4.40
2019-05-06T07:34:53.389Z,8.03
2019-05-06T07:37:23.499Z,5.73
2019-05-06T07:39:53.667Z,5.50
2019-05-06T07:42:32.740Z,5.77
2019-05-06T07:45:33.941Z,6.70
2019-05-06T07:48:09.553Z,5.73
2019-05-06T07:50:39.776Z,3.97
2019-05-06T07:53:10.449Z,6.33
2019-05-06T07:55:42.400Z,5.40
2019-05-06T07:58:13.756Z,4.47
2019-05-06T08:00:44.182Z,3.67
2019-05-06T08:03:14.375Z,13.10
2019-05-06T08:05:54.667Z,4.20
2019-05-06T08:08:16.559Z,3.95
2019-05-06T08:10:46.472Z,2.80
2019-05-06T08:13:16.585Z,2.62
2019-05-06T08:15:46.806Z,5.40
2019-05-06T08:18:16.927Z,3.05
2019-05-06T08:20:47.126Z,3.12
2019-05-06T08:23:39.487Z,2.77
2019-05-06T08:26:13.068Z,5.00
2019-05-06T08:28:44.504Z,3.95
2019-05-06T08:31:15.760Z,7.67
2019-05-06T08:33:45.921Z,3.67
2019-05-06T08:36:22.619Z,5.90
2019-05-06T08:39:02.761Z,3.93
2019-05-06T08:41:33.313Z,3.73
2019-05-06T08:44:03.625Z,7.83
2019-05-06T08:46:33.939Z,4.60
2019-05-06T08:49:04.273Z,3.57
2019-05-06T08:51:43.681Z,3.23
2019-05-06T08:54:22.618Z,3.80
2019-05-06T08:56:52.490Z,5.20
2019-05-06T08:59:24.044Z,5.00
2019-05-06T09:01:54.584Z,3.53
2019-05-06T09:04:24.622Z,2.67
2019-05-06T09:06:54.713Z,2.87
2019-05-06T09:09:24.728Z,2.90
2019-05-06T09:11:54.833Z,2.60
2019-05-06T09:14:24.856Z,6.10
2019-05-06T09:16:54.865Z,3.43
2019-05-06T09:19:24.960Z,3.93
2019-05-06T09:21:54.878Z,3.57
2019-05-06T09:24:25.172Z,2.40
2019-05-06T09:27:14.260Z,3.37
2019-05-06T09:30:06.290Z,2.93
2019-05-06T09:32:42.846Z,2.33
2019-05-06T09:35:13.288Z,1.70
2019-05-06T09:37:43.460Z,5.33
2019-05-06T09:40:14.024Z,2.47
2019-05-06T09:42:44.034Z,3.00
2019-05-06T09:45:15.326Z,4.67
2019-05-06T09:47:57.922Z,2.70
2019-05-06T09:50:45.999Z,3.25
2019-05-06T09:53:20.276Z,3.73
2019-05-06T09:56:07.854Z,4.60
2019-05-06T09:58:42.921Z,6.97
2019-05-06T10:01:14.172Z,8.20
2019-05-06T10:03:44.276Z,3.10
2019-05-06T10:06:14.483Z,2.63
2019-05-06T10:08:44.699Z,5.00
2019-05-06T10:11:14.897Z,3.23
2019-05-06T10:13:45.554Z,3.77
2019-05-06T10:16:15.723Z,4.17
2019-05-06T10:18:45.811Z,3.10
2019-05-06T10:21:15.946Z,3.87
2019-05-06T10:23:46.033Z,2.90
2019-05-06T10:26:16.204Z,3.23
2019-05-06T10:28:56.082Z,3.50
2019-05-06T10:31:26.326Z,4.93
2019-05-06T10:34:14.067Z,4.90
2019-05-06T10:37:19.295Z,3.37
2019-05-06T10:39:57.751Z,6.13
2019-05-06T10:42:37.922Z,3.27
2019-05-06T10:45:25.529Z,4.03
2019-05-06T10:47:56.026Z,3.87
2019-05-06T10:50:28.159Z,3.70
2019-05-06T10:53:17.224Z,3.13
2019-05-06T10:55:53.353Z,4.63
2019-05-06T10:58:22.966Z,3.03
2019-05-06T11:01:03.742Z,3.77
2019-05-06T11:03:33.825Z,4.37
2019-05-06T11:06:04.212Z,8.30
2019-05-06T11:08:34.292Z,2.70
2019-05-06T11:11:14.814Z,2.93
2019-05-06T11:13:36.419Z,3.10
2019-05-06T11:16:06.646Z,3.03
2019-05-06T11:18:36.595Z,10.07
2019-05-06T11:21:06.817Z,12.03
2019-05-06T11:23:37.023Z,5.60
2019-05-06T11:26:07.123Z,3.23
2019-05-06T11:28:51.866Z,2.33
2019-05-06T11:31:32.974Z,2.20
2019-05-06T11:34:15.298Z,5.43
2019-05-06T11:37:15.045Z,3.00
2019-05-06T11:39:44.945Z,4.15
2019-05-06T11:42:28.042Z,4.50
2019-05-06T11:44:46.892Z,4.07
2019-05-06T11:47:16.996Z,5.87
2019-05-06T11:49:48.633Z,3.40
2019-05-06T11:52:18.748Z,4.70
2019-05-06T11:54:48.831Z,8.08
2019-05-06T11:57:18.843Z,6.25
2019-05-06T11:59:48.854Z,2.50
2019-05-06T12:02:21.677Z,7.47
2019-05-06T12:04:52.755Z,3.43
2019-05-06T12:07:24.659Z,3.00
2019-05-06T12:09:55.283Z,3.05
2019-05-06T12:12:25.322Z,6.53
2019-05-06T12:14:55.360Z,6.45
2019-05-06T12:17:25.669Z,3.67
2019-05-06T12:19:55.747Z,4.10
2019-05-06T12:22:35.659Z,4.07
2019-05-06T12:25:14.425Z,10.87
2019-05-06T12:27:45.340Z,2.60
2019-05-06T12:30:23.414Z,2.77
2019-05-06T12:33:12.971Z,4.90
2019-05-06T12:35:46.371Z,4.90
2019-05-06T12:38:29.472Z,3.40
2019-05-06T12:40:54.074Z,3.40
2019-05-06T12:43:43.077Z,3.87
2019-05-06T12:46:18.687Z,4.90
2019-05-06T12:48:48.880Z,7.40
2019-05-06T12:51:18.963Z,4.30
2019-05-06T12:53:49.065Z,4.17
2019-05-06T12:56:19.258Z,7.83
2019-05-06T12:58:49.397Z,3.57
2019-05-06T13:01:19.469Z,4.80
2019-05-06T13:03:49.532Z,2.73
2019-05-06T13:06:19.732Z,3.83
2019-05-06T13:08:58.761Z,5.83
2019-05-06T13:11:22.109Z,4.17
2019-05-06T13:13:59.754Z,4.10
2019-05-06T13:16:24.093Z,4.87
2019-05-06T13:18:54.897Z,3.77
2019-05-06T13:21:25.317Z,4.27
2019-05-06T13:24:02.408Z,4.10
2019-05-06T13:26:32.548Z,6.33
2019-05-06T13:29:08.716Z,3.70
2019-05-06T13:31:38.843Z,3.80
2019-05-06T13:34:14.127Z,3.37
2019-05-06T13:36:45.143Z,3.92
2019-05-06T13:39:15.650Z,9.48
2019-05-06T13:41:45.627Z,4.23
2019-05-06T13:44:17.251Z,7.23
2019-05-06T13:46:53.278Z,3.30
2019-05-06T13:49:29.343Z,3.23
2019-05-06T13:52:04.366Z,3.27
2019-05-06T13:54:33.764Z,3.40
2019-05-06T13:57:03.874Z,3.73
2019-05-06T13:59:35.372Z,3.53
2019-05-06T14:02:30.890Z,3.97
2019-05-06T14:05:02.916Z,4.60
2019-05-06T14:07:34.527Z,5.33
2019-05-06T14:10:05.711Z,3.37
2019-05-06T14:12:35.823Z,2.93
2019-05-06T14:15:07.323Z,8.10
2019-05-06T14:17:37.578Z,3.03
2019-05-06T14:20:08.281Z,3.40
2019-05-06T14:22:38.479Z,2.73
2019-05-06T14:25:19.579Z,5.20
2019-05-06T14:27:53.659Z,4.93
2019-05-06T14:30:42.957Z,3.10
2019-05-06T14:33:15.448Z,4.63
2019-05-06T14:35:45.837Z,5.50
2019-05-06T14:38:15.962Z,4.33
2019-05-06T14:41:08.095Z,3.70
2019-05-06T14:43:38.480Z,5.40
2019-05-06T14:46:08.509Z,4.00
2019-05-06T14:48:38.818Z,5.50
2019-05-06T14:51:08.853Z,5.90
2019-05-06T14:53:39.009Z,3.50
2019-05-06T14:56:14.858Z,5.43
2019-05-06T14:59:03.842Z,3.60
2019-05-06T15:01:36.331Z,5.83
2019-05-06T15:04:06.957Z,6.00
2019-05-06T15:06:37.140Z,7.40
2019-05-06T15:09:09.885Z,5.53
2019-05-06T15:11:39.838Z,3.90
2019-05-06T15:14:09.944Z,4.97
2019-05-06T15:16:42.277Z,4.07
2019-05-06T15:19:12.907Z,7.33
2019-05-06T15:21:43.275Z,8.63
2019-05-06T15:24:14.297Z,6.77
2019-05-06T15:26:44.656Z,6.97
2019-05-06T15:29:14.778Z,11.50
2019-05-06T15:32:03.731Z,5.80
2019-05-06T15:34:56.362Z,5.50
2019-05-06T15:37:34.943Z,10.33
2019-05-06T15:40:06.439Z,7.47
2019-05-06T15:42:36.493Z,5.62
2019-05-06T15:45:07.122Z,6.00
2019-05-06T15:47:37.221Z,8.87
2019-05-06T15:50:08.250Z,12.47
2019-05-06T15:52:38.316Z,5.73
2019-05-06T15:55:08.846Z,6.83
2019-05-06T15:57:38.923Z,10.17
2019-05-06T16:00:12.898Z,17.50
2019-05-06T16:02:42.361Z,11.10
2019-05-06T16:05:19.598Z,8.40
2019-05-06T16:07:44.931Z,8.68
2019-05-06T16:10:16.531Z,9.37
2019-05-06T16:12:49.985Z,6.77
2019-05-06T16:15:24.540Z,8.10
2019-05-06T16:17:53.325Z,13.40
2019-05-06T16:20:23.607Z,5.27
2019-05-06T16:23:03.225Z,9.03
2019-05-06T16:25:32.858Z,5.75
2019-05-06T16:28:02.964Z,5.45
2019-05-06T16:30:33.911Z,5.78
2019-05-06T16:33:04.262Z,6.37
2019-05-06T16:35:34.396Z,7.77
2019-05-06T16:38:04.598Z,8.83
2019-05-06T16:40:34.795Z,4.90
2019-05-06T16:43:04.972Z,5.03
2019-05-06T16:45:35.017Z,8.93
2019-05-06T16:48:05.226Z,7.87
2019-05-06T16:50:35.450Z,5.33
2019-05-06T16:53:05.673Z,7.37
2019-05-06T16:56:13.263Z,9.60
2019-05-06T16:58:47.584Z,4.40
2019-05-06T17:01:17.762Z,5.40
2019-05-06T17:03:56.280Z,6.43
2019-05-06T17:06:35.744Z,3.20
2019-05-06T17:09:19.987Z,4.47
2019-05-06T17:11:42.642Z,8.57
2019-05-06T17:14:12.995Z,4.53
2019-05-06T17:16:43.149Z,3.80
2019-05-06T17:19:13.313Z,4.80
2019-05-06T17:21:43.484Z,4.22
2019-05-06T17:24:13.602Z,6.67
2019-05-06T17:26:43.867Z,10.60
2019-05-06T17:29:32.218Z,5.37
2019-05-06T17:32:11.951Z,8.80
2019-05-06T17:34:45.778Z,5.27
2019-05-06T17:37:36.830Z,10.00
2019-05-06T17:40:10.844Z,7.60
2019-05-06T17:42:39.081Z,8.20
2019-05-06T17:45:32.872Z,6.27
2019-05-06T17:48:28.029Z,13.43
2019-05-06T17:51:29.343Z,9.33
2019-05-06T17:54:00.917Z,9.47
2019-05-06T17:56:31.232Z,9.47
2019-05-06T17:59:03.171Z,9.87
2019-05-06T18:01:42.035Z,11.03
2019-05-06T18:04:12.713Z,7.27
2019-05-06T18:06:43.048Z,13.43
2019-05-06T18:09:12.987Z,15.30
2019-05-06T18:11:57.571Z,15.97
2019-05-06T18:14:15.420Z,7.40
2019-05-06T18:16:45.609Z,9.00
2019-05-06T18:19:15.842Z,9.97
2019-05-06T18:21:45.976Z,8.90
2019-05-06T18:24:16.078Z,10.00
2019-05-06T18:26:46.095Z,10.10
2019-05-06T18:29:16.270Z,10.63
2019-05-06T18:31:46.417Z,8.27
2019-05-06T18:34:16.685Z,8.33
2019-05-06T18:36:48.013Z,10.40
2019-05-06T18:39:18.048Z,11.33
2019-05-06T18:41:48.111Z,7.27
2019-05-06T18:44:18.184Z,12.03
2019-05-06T18:46:48.278Z,11.77
2019-05-06T18:49:18.381Z,10.23
2019-05-06T18:51:51.256Z,12.93
2019-05-06T18:54:22.085Z,9.90
2019-05-06T18:56:53.027Z,13.85
2019-05-06T18:59:23.257Z,9.68
2019-05-06T19:01:54.005Z,9.90
2019-05-06T19:04:33.470Z,16.90
2019-05-06T19:07:10.718Z,9.13
2019-05-06T19:12:31.943Z,15.67
2019-05-06T19:14:55.714Z,11.60
2019-05-06T19:17:25.916Z,10.20
2019-05-06T19:19:56.363Z,11.07
2019-05-06T19:22:26.905Z,10.15
2019-05-06T19:24:57.181Z,9.37
2019-05-06T19:27:27.518Z,13.43
2019-05-06T19:29:57.681Z,11.03
2019-05-06T19:32:28.707Z,11.73
2019-05-06T19:34:59.097Z,9.37
2019-05-06T19:37:29.272Z,10.40
2019-05-06T19:39:59.570Z,13.53
2019-05-06T19:42:45.529Z,12.23
2019-05-06T19:45:02.554Z,14.70
2019-05-06T19:47:34.197Z,15.50
2019-05-06T19:50:04.661Z,12.97
2019-05-06T19:52:34.835Z,14.30
2019-05-06T19:55:05.865Z,20.83
2019-05-06T19:57:36.045Z,13.30
2019-05-06T20:00:06.568Z,15.30
2019-05-06T20:02:37.794Z,12.90
2019-05-06T20:05:15.644Z,9.70
2019-05-06T20:08:13.230Z,9.47
2019-05-06T20:11:08.363Z,11.30
2019-05-06T20:13:38.551Z,17.20
2019-05-06T20:16:08.669Z,10.70
2019-05-06T20:18:38.765Z,18.77
2019-05-06T20:21:09.185Z,8.50
2019-05-06T20:23:39.162Z,10.53
2019-05-06T20:26:09.252Z,17.53
2019-05-06T20:28:39.344Z,10.57
2019-05-06T20:31:09.491Z,13.60
2019-05-06T20:33:42.049Z,19.40
2019-05-06T20:36:12.602Z,8.57
2019-05-06T20:38:43.488Z,18.37
2019-05-06T20:41:13.622Z,12.33
2019-05-06T20:43:44.186Z,11.07
2019-05-06T20:46:14.523Z,9.85
2019-05-06T20:48:44.628Z,12.27
2019-05-06T20:51:17.214Z,16.43
2019-05-06T20:53:47.106Z,15.67
2019-05-06T20:56:17.146Z,14.57
2019-05-06T20:58:47.230Z,12.47
2019-05-06T21:01:17.250Z,12.43
2019-05-06T21:03:47.344Z,15.83
2019-05-06T21:06:17.450Z,13.60
2019-05-06T21:08:47.513Z,13.57
2019-05-06T21:11:26.558Z,34.40
2019-05-06T21:13:49.666Z,21.48
2019-05-06T21:16:19.711Z,20.00
2019-05-06T21:18:51.989Z,9.57
2019-05-06T21:21:21.685Z,14.00
2019-05-06T21:23:52.444Z,14.77
2019-05-06T21:26:22.494Z,8.85
2019-05-06T21:28:52.657Z,18.73
2019-05-06T21:31:22.755Z,11.07
2019-05-06T21:33:52.671Z,14.90
2019-05-06T21:36:23.122Z,11.10
2019-05-06T21:38:53.185Z,21.70
2019-05-06T21:41:23.385Z,9.17
2019-05-06T21:43:53.375Z,10.73
2019-05-06T21:46:23.608Z,11.63
2019-05-06T21:48:53.731Z,12.30
2019-05-06T21:51:23.973Z,11.48
2019-05-06T21:53:54.051Z,10.70
2019-05-06T21:56:24.153Z,8.90
2019-05-06T21:58:54.170Z,9.33
2019-05-06T22:01:24.943Z,12.40
2019-05-06T22:03:55.077Z,12.70
2019-05-06T22:06:25.260Z,11.63
2019-05-06T22:08:55.420Z,12.07
2019-05-06T22:11:25.504Z,17.20
2019-05-06T22:14:01.268Z,10.77
2019-05-06T22:16:27.295Z,11.07
2019-05-06T22:18:57.430Z,10.83
2019-05-06T22:21:27.552Z,8.33
2019-05-06T22:23:58.825Z,9.30
2019-05-06T22:26:29.501Z,11.80
2019-05-06T22:29:01.901Z,8.30
2019-05-06T22:31:33.121Z,17.47
2019-05-06T22:34:03.435Z,10.80
2019-05-06T22:36:33.387Z,6.77
2019-05-06T22:39:05.609Z,10.00
2019-05-06T22:41:35.811Z,12.07
2019-05-06T22:44:13.858Z,8.87
2019-05-06T22:46:37.928Z,11.13
2019-05-06T22:49:08.011Z,8.00
2019-05-06T22:51:38.148Z,7.87
2019-05-06T22:54:08.248Z,9.80
2019-05-06T22:56:38.338Z,9.78
2019-05-06T22:59:08.453Z,14.47
2019-05-06T23:02:13.168Z,14.43
2019-05-06T23:04:45.004Z,8.90
2019-05-06T23:07:15.134Z,15.03
2019-05-06T23:09:45.237Z,12.07
2019-05-06T23:12:15.369Z,7.53
2019-05-06T23:14:45.349Z,12.30
2019-05-06T23:17:15.543Z,8.80
2019-05-06T23:19:45.693Z,10.30
2019-05-06T23:22:15.941Z,10.30
2019-05-06T23:24:45.955Z,8.70
2019-05-06T23:27:16.026Z,10.60
2019-05-06T23:29:46.037Z,7.03
2019-05-06T23:32:16.087Z,10.20
2019-05-06T23:34:46.204Z,10.67
2019-05-06T23:37:23.642Z,15.87
2019-05-06T23:40:48.120Z,7.87
2019-05-06T23:44:12.733Z,5.30
2019-05-06T23:47:37.257Z,9.03
2019-05-06T23:51:01.709Z,8.95
2019-05-06T23:54:25.984Z,9.65
2019-05-06T23:56:53.910Z,7.17
2019-05-06T23:59:24.152Z,6.33
